Time;durP1;ratioP1;P1;durP2;ratioP2;P2;SDS_P1;SDS_P2;PMS_P1;PMS_P2;Temp;Humidity;BMP_temperature;BMP_pressure;BME280_temperature;BME280_humidity;BME280_pressure;Samples;Min_cycle;Max_cycle;Signal;HPM_P1;HPM_P2
2023/12/17 00:04:09;;;;;;;15.50;11.90;;;;;;;3.51;100.00;100893.83;435923;1256;140073;-66
2023/12/17 00:14:16;;;;;;;15.80;11.20;;;;;;;3.60;100.00;100869.98;437783;1254;141294;-66
2023/12/17 00:24:22;;;;;;;13.90;12.50;;;;;;;3.68;100.00;100849.94;434965;1255;140619;-66
2023/12/17 00:34:28;;;;;;;13.50;10.60;;;;;;;3.74;100.00;100839.45;435508;1256;140846;-66
2023/12/17 00:44:35;;;;;;;16.40;11.50;;;;;;;3.78;100.00;100821.04;435392;1251;140812;-66
2023/12/17 00:54:41;;;;;;;19.40;12.20;;;;;;;3.80;100.00;100832.09;434812;1256;140889;-65
2023/12/17 01:04:47;;;;;;;23.00;12.70;;;;;;;3.85;100.00;100841.36;435979;1254;142165;-65
2023/12/17 01:14:54;;;;;;;18.10;10.90;;;;;;;3.88;100.00;100835.94;439414;1255;140574;-65
2023/12/17 01:25:00;;;;;;;15.70;11.20;;;;;;;3.95;100.00;100840.16;437646;1251;140269;-65
2023/12/17 01:35:08;;;;;;;23.90;13.90;;;;;;;4.02;100.00;100840.39;435307;1257;140207;-66
2023/12/17 01:45:15;;;;;;;14.00;10.40;;;;;;;4.10;100.00;100835.41;434903;1255;140520;-66
2023/12/17 01:55:21;;;;;;;16.10;13.00;;;;;;;4.16;100.00;100826.11;434871;1257;139714;-65
2023/12/17 02:05:28;;;;;;;20.80;11.20;;;;;;;4.26;100.00;100840.52;435419;1251;139744;-65
2023/12/17 02:15:34;;;;;;;17.80;10.50;;;;;;;4.34;100.00;100850.42;434680;1256;140329;-65
2023/12/17 02:25:40;;;;;;;14.50;11.10;;;;;;;4.41;100.00;100845.45;435707;1251;139581;-65
2023/12/17 02:35:47;;;;;;;12.20;10.60;;;;;;;4.45;100.00;100834.79;434689;1251;140795;-66
2023/12/17 02:45:53;;;;;;;17.10;11.20;;;;;;;4.50;100.00;100837.64;435697;1251;139695;-66
2023/12/17 02:56:02;;;;;;;18.50;10.40;;;;;;;4.53;100.00;100825.46;436551;1251;139545;-65
2023/12/17 03:06:08;;;;;;;16.80;11.80;;;;;;;4.57;100.00;100804.21;435571;1251;139906;-66
2023/12/17 03:16:15;;;;;;;14.80;11.00;;;;;;;4.60;100.00;100808.16;435082;1255;139698;-65
2023/12/17 03:26:21;;;;;;;18.60;13.30;;;;;;;4.62;100.00;100814.52;435075;1251;163441;-65
2023/12/17 03:36:28;;;;;;;22.50;13.70;;;;;;;4.65;100.00;100824.70;437232;1251;139605;-65
2023/12/17 03:46:34;;;;;;;18.80;14.20;;;;;;;4.68;100.00;100817.54;438425;1251;140398;-65
2023/12/17 03:56:45;;;;;;;17.60;13.10;;;;;;;4.71;100.00;100798.21;436614;1252;140170;-66
2023/12/17 04:06:51;;;;;;;16.70;12.40;;;;;;;4.75;100.00;100803.34;435286;1256;139761;-65
2023/12/17 04:16:57;;;;;;;17.10;13.90;;;;;;;4.79;100.00;100809.33;434600;1251;150484;-64
2023/12/17 04:27:04;;;;;;;15.20;13.20;;;;;;;4.83;100.00;100806.99;434880;1256;140671;-64
2023/12/17 04:37:10;;;;;;;17.00;13.00;;;;;;;4.86;100.00;100812.48;436041;1255;139741;-65
2023/12/17 04:47:17;;;;;;;15.40;11.50;;;;;;;4.91;100.00;100817.07;435810;1251;139490;-65
2023/12/17 04:57:23;;;;;;;21.40;14.90;;;;;;;4.94;100.00;100804.16;434801;1251;140532;-65
2023/12/17 05:07:30;;;;;;;12.70;11.30;;;;;;;4.96;100.00;100808.47;437080;1251;140685;-65
2023/12/17 05:17:36;;;;;;;16.30;11.90;;;;;;;4.97;100.00;100806.89;435306;1251;140234;-65
2023/12/17 05:27:43;;;;;;;14.20;12.10;;;;;;;4.98;100.00;100819.20;435375;1251;139835;-65
2023/12/17 05:37:49;;;;;;;16.60;12.20;;;;;;;4.99;100.00;100809.27;435224;1251;141758;-66
2023/12/17 05:47:55;;;;;;;19.00;13.70;;;;;;;4.99;100.00;100804.22;435268;1251;139935;-66
2023/12/17 05:58:02;;;;;;;18.10;13.50;;;;;;;5.01;100.00;100819.98;435689;1255;140530;-65
2023/12/17 06:08:08;;;;;;;17.20;13.10;;;;;;;5.03;100.00;100813.70;435009;1256;140381;-66
2023/12/17 06:18:16;;;;;;;20.60;14.80;;;;;;;5.04;100.00;100812.29;436138;1255;139750;-65
2023/12/17 06:28:25;;;;;;;16.50;11.80;;;;;;;5.04;100.00;100816.98;434994;1254;139846;-65
2023/12/17 06:38:31;;;;;;;17.70;13.20;;;;;;;5.02;100.00;100810.41;435690;1251;141185;-65
2023/12/17 06:48:38;;;;;;;19.10;15.30;;;;;;;5.01;100.00;100805.40;434671;1253;140498;-66
2023/12/17 06:58:45;;;;;;;18.30;13.10;;;;;;;5.02;100.00;100802.08;434979;1251;139988;-65
2023/12/17 07:08:51;;;;;;;19.40;14.40;;;;;;;5.02;100.00;100817.72;434757;1256;139657;-65
2023/12/17 07:18:57;;;;;;;18.50;13.80;;;;;;;5.05;100.00;100838.48;434979;1254;139952;-65
2023/12/17 07:29:04;;;;;;;19.20;16.30;;;;;;;5.08;100.00;100849.36;435962;1253;139738;-65
2023/12/17 07:39:10;;;;;;;19.40;14.00;;;;;;;5.11;100.00;100862.65;434903;1251;140297;-66
2023/12/17 07:49:16;;;;;;;20.20;16.00;;;;;;;5.14;100.00;100876.30;435209;1256;139479;-66
2023/12/17 07:59:23;;;;;;;21.00;16.70;;;;;;;5.17;100.00;100891.52;435027;1251;140268;-64
2023/12/17 08:09:29;;;;;;;20.90;13.70;;;;;;;5.20;100.00;100921.14;435064;1251;140720;-66
2023/12/17 08:19:38;;;;;;;17.40;14.40;;;;;;;5.24;100.00;100927.66;435125;1256;140936;-66
2023/12/17 08:29:47;;;;;;;18.50;14.00;;;;;;;5.29;100.00;100932.93;435645;1255;141268;-66
2023/12/17 08:39:54;;;;;;;13.80;12.50;;;;;;;5.34;100.00;100940.65;435905;1251;140223;-65
2023/12/17 08:50:01;;;;;;;16.60;12.70;;;;;;;5.36;100.00;100943.05;434981;1251;142680;-64
2023/12/17 09:00:12;;;;;;;16.20;12.80;;;;;;;5.39;100.00;100940.73;435895;1251;140029;-66
2023/12/17 09:10:19;;;;;;;16.40;12.90;;;;;;;5.40;100.00;100941.23;435574;1255;140091;-66
2023/12/17 09:20:26;;;;;;;15.30;13.70;;;;;;;5.40;100.00;100935.51;436454;1251;140281;-64
2023/12/17 09:30:32;;;;;;;16.90;14.60;;;;;;;5.39;100.00;100939.17;435166;1256;140349;-65
2023/12/17 09:40:38;;;;;;;13.80;12.40;;;;;;;5.37;100.00;100928.60;435158;1255;139694;-66
2023/12/17 09:50:45;;;;;;;16.60;13.50;;;;;;;5.40;100.00;100925.59;435298;1251;139964;-65
2023/12/17 10:00:51;;;;;;;15.40;13.60;;;;;;;5.40;100.00;100919.69;436463;1251;140880;-65
2023/12/17 10:10:58;;;;;;;15.40;12.90;;;;;;;5.38;100.00;100915.91;435787;1254;140551;-65
2023/12/17 10:21:09;;;;;;;15.00;12.00;;;;;;;5.41;100.00;100915.33;435610;1254;140386;-67
2023/12/17 10:31:16;;;;;;;15.90;12.00;;;;;;;5.43;100.00;100919.11;435344;1256;139382;-67
2023/12/17 10:41:24;;;;;;;12.60;11.40;;;;;;;5.43;100.00;100910.94;434934;1253;140005;-66
2023/12/17 10:51:33;;;;;;;13.50;12.10;;;;;;;5.45;100.00;100898.23;435859;1251;139505;-65
2023/12/17 11:01:42;;;;;;;17.80;14.70;;;;;;;5.47;100.00;100892.96;436350;1251;140006;-66
2023/12/17 11:11:51;;;;;;;16.00;14.30;;;;;;;5.48;100.00;100874.53;435838;1251;139738;-65
2023/12/17 11:21:58;;;;;;;14.60;12.40;;;;;;;5.48;100.00;100874.53;435729;1256;140220;-66
2023/12/17 11:32:05;;;;;;;15.50;12.90;;;;;;;5.49;100.00;100862.87;435956;1255;139140;-66
2023/12/17 11:42:10;;;;;;;;;;;;;;;5.52;100.00;100861.78;436276;1254;140167;-67
2023/12/17 11:52:19;;;;;;;15.00;12.20;;;;;;;5.51;100.00;100872.21;436597;1255;126604;-66
2023/12/17 12:02:28;;;;;;;16.60;14.60;;;;;;;5.49;100.00;100887.89;436921;1255;140401;-65
2023/12/17 12:12:34;;;;;;;16.90;14.30;;;;;;;5.49;100.00;100887.20;435357;1253;139761;-66
2023/12/17 12:22:42;;;;;;;19.50;15.30;;;;;;;5.52;100.00;100888.17;435238;1254;139555;-67
2023/12/17 12:32:54;;;;;;;20.00;15.90;;;;;;;5.54;100.00;100876.65;435282;1254;140324;-67
2023/12/17 12:43:04;;;;;;;19.80;15.90;;;;;;;5.54;100.00;100871.27;436108;1254;139721;-65
2023/12/17 12:53:11;;;;;;;19.00;16.70;;;;;;;5.55;100.00;100870.73;438716;1252;139910;-66
2023/12/17 13:03:27;;;;;;;19.40;15.40;;;;;;;5.57;100.00;100870.68;435558;1254;139902;-64
2023/12/17 13:13:33;;;;;;;19.90;15.80;;;;;;;5.56;100.00;100869.15;435087;1255;141586;-66
2023/12/17 13:23:40;;;;;;;16.90;14.60;;;;;;;5.55;100.00;100855.98;435416;1252;140201;-67
2023/12/17 13:33:46;;;;;;;20.90;15.40;;;;;;;5.54;100.00;100842.79;434808;1255;140146;-67
2023/12/17 13:43:52;;;;;;;22.70;14.40;;;;;;;5.52;100.00;100831.21;435884;1255;140835;-66
2023/12/17 13:53:59;;;;;;;20.00;15.20;;;;;;;5.51;100.00;100841.65;434983;1252;140803;-65
2023/12/17 14:04:06;;;;;;;17.40;14.10;;;;;;;5.45;100.00;100845.24;434819;1254;140226;-66
2023/12/17 14:14:12;;;;;;;20.60;14.40;;;;;;;5.41;100.00;100850.02;435777;1253;139235;-66
2023/12/17 14:24:19;;;;;;;20.20;15.40;;;;;;;5.39;100.00;100859.98;435015;1256;140409;-65
2023/12/17 14:34:25;;;;;;;19.60;15.40;;;;;;;5.33;100.00;100851.24;434729;1256;140764;-66
2023/12/17 14:44:32;;;;;;;17.60;14.20;;;;;;;5.31;100.00;100848.52;435433;1256;140255;-65
2023/12/17 14:54:40;;;;;;;20.30;14.60;;;;;;;5.28;100.00;100828.95;434805;1256;139253;-66
2023/12/17 15:04:47;;;;;;;17.80;13.70;;;;;;;5.24;100.00;100820.55;435256;1256;139734;-65
2023/12/17 15:14:53;;;;;;;18.20;14.40;;;;;;;5.22;100.00;100828.73;435813;1251;140489;-66
2023/12/17 15:24:59;;;;;;;14.50;12.00;;;;;;;5.17;100.00;100818.44;435096;1256;139912;-65
2023/12/17 15:35:07;;;;;;;14.70;12.40;;;;;;;5.18;100.00;100838.89;435135;1256;139729;-66
2023/12/17 15:45:12;;;;;;;;;;;;;;;5.18;100.00;100819.11;435480;1254;140195;-67
2023/12/17 15:55:16;;;;;;;;;;;;;;;5.13;100.00;100816.43;437309;1255;127570;-67
2023/12/17 16:05:22;;;;;;;;;;;;;;;5.11;100.00;100817.34;436570;1254;125402;-67
2023/12/17 16:15:27;;;;;;;;;;;;;;;5.13;100.00;100810.55;435991;1254;126587;-64
2023/12/17 16:25:32;;;;;;;;;;;;;;;5.12;100.00;100841.11;435773;1256;125418;-66
2023/12/17 16:35:37;;;;;;;;;;;;;;;5.12;100.00;100832.09;435522;1255;126631;-65
2023/12/17 16:45:44;;;;;;;;;;;;;;;5.11;100.00;100827.94;434964;1256;126495;-65
2023/12/17 16:55:49;;;;;;;;;;;;;;;5.10;100.00;100805.73;439135;1254;125672;-66
2023/12/17 17:05:54;;;;;;;;;;;;;;;5.09;100.00;100810.82;434954;1256;126558;-68
2023/12/17 17:15:58;;;;;;;;;;;;;;;5.08;100.00;100823.84;437284;1255;127932;-64
2023/12/17 17:26:03;;;;;;;;;;;;;;;5.09;100.00;100811.66;435539;1254;127736;-68
2023/12/17 17:36:08;;;;;;;;;;;;;;;5.10;100.00;100803.66;435557;1257;125880;-70
2023/12/17 17:46:13;;;;;;;;;;;;;;;5.04;100.00;100787.65;434920;1256;126604;-69
2023/12/17 17:56:18;;;;;;;;;;;;;;;4.98;100.00;100794.04;435270;1256;125402;-67
2023/12/17 18:06:23;;;;;;;;;;;;;;;4.88;100.00;100786.25;434946;1254;126025;-69
2023/12/17 18:16:28;;;;;;;;;;;;;;;4.78;100.00;100777.27;436685;1251;126782;-68
2023/12/17 18:26:32;;;;;;;;;;;;;;;4.70;100.00;100784.54;435113;1251;125568;-67
2023/12/17 18:36:37;;;;;;;;;;;;;;;4.67;100.00;100787.73;435069;1255;126422;-69
2023/12/17 18:46:42;;;;;;;;;;;;;;;4.69;100.00;100769.66;435205;1256;126413;-68
2023/12/17 18:56:46;;;;;;;;;;;;;;;4.66;100.00;100746.45;436087;1256;125664;-69
2023/12/17 19:06:51;;;;;;;;;;;;;;;4.56;100.00;100727.93;434933;1251;126040;-68
2023/12/17 19:16:55;;;;;;;;;;;;;;;4.39;100.00;100730.70;435461;1251;125866;-69
2023/12/17 19:27:00;;;;;;;;;;;;;;;4.19;100.00;100731.61;436263;1251;127106;-70
2023/12/17 19:37:05;;;;;;;;;;;;;;;4.00;100.00;100727.63;435255;1256;126067;-68
2023/12/17 19:47:10;;;;;;;;;;;;;;;3.78;100.00;100710.18;435881;1254;126883;-68
2023/12/17 19:57:14;;;;;;;;;;;;;;;3.54;100.00;100703.14;435710;1255;125705;-67
2023/12/17 20:07:20;;;;;;;;;;;;;;;3.33;100.00;100695.19;435456;1256;125736;-69
2023/12/17 20:17:25;;;;;;;;;;;;;;;3.19;100.00;100686.73;435607;1255;125628;-68
2023/12/17 20:27:30;;;;;;;;;;;;;;;3.14;100.00;100684.59;435762;1251;125981;-68
2023/12/17 20:37:35;;;;;;;;;;;;;;;3.04;100.00;100679.89;435027;1251;125171;-68
2023/12/17 20:47:41;;;;;;;;;;;;;;;2.91;100.00;100677.31;435510;1255;127115;-69
2023/12/17 20:57:45;;;;;;;;;;;;;;;2.75;100.00;100671.32;435783;1251;126486;-68
2023/12/17 21:07:50;;;;;;;;;;;;;;;2.62;100.00;100656.95;434988;1251;127339;-68
2023/12/17 21:17:55;;;;;;;;;;;;;;;2.62;100.00;100631.55;435346;1256;125505;-68
2023/12/17 21:28:00;;;;;;;;;;;;;;;2.56;100.00;100632.69;435011;1251;127010;-69
2023/12/17 21:38:05;;;;;;;;;;;;;;;2.51;100.00;100613.90;435051;1251;126311;-69
2023/12/17 21:48:10;;;;;;;;;;;;;;;2.51;100.00;100605.77;435151;1251;126795;-70
2023/12/17 21:58:15;;;;;;;;;;;;;;;2.52;100.00;100598.52;436347;1251;127039;-68
2023/12/17 22:08:20;;;;;;;;;;;;;;;2.61;100.00;100602.19;437102;1251;125324;-68
2023/12/17 22:18:24;;;;;;;;;;;;;;;2.71;100.00;100606.17;435183;1256;125744;-68
2023/12/17 22:28:29;;;;;;;;;;;;;;;2.77;100.00;100590.36;435135;1251;125747;-69
2023/12/17 22:38:34;;;;;;;;;;;;;;;2.79;100.00;100582.36;435771;1251;125588;-68
2023/12/17 22:48:39;;;;;;;;;;;;;;;2.83;100.00;100573.67;435967;1251;126419;-68
2023/12/17 22:58:50;;;;;;;;;;;;;;;2.87;100.00;100556.30;435120;1254;126327;-69
2023/12/17 23:08:55;;;;;;;;;;;;;;;3.03;100.00;100540.80;436122;1255;125547;-68
2023/12/17 23:19:00;;;;;;;;;;;;;;;3.14;100.00;100532.84;437931;1251;125783;-69
2023/12/17 23:29:04;;;;;;;;;;;;;;;3.20;100.00;100519.22;436993;1251;126254;-68
2023/12/17 23:39:10;;;;;;;;;;;;;;;3.06;100.00;100530.03;435035;1251;126557;-70
2023/12/17 23:49:14;;;;;;;;;;;;;;;2.78;100.00;100536.75;435595;1251;125821;-68
2023/12/17 23:59:19;;;;;;;;;;;;;;;2.47;100.00;100529.09;435560;1251;126131;-67
